• Join FlightAware (Why Join?)
  • Login
  • US Flag 
04:43AM EDT


 

Airport Tracker/Info


-or-


 

Live Flight TrackerFlight Track Log ✈ N50KC ✈ 19-Jun-2013 ✈ LGAV / ATH - KTEB

Flight Track Log - Related Links

Times and Time Zones

All times are in EDT time to prevent confusion due to time zone crossing. See the N50KC flight status page for this flight to view local times or setup timezone preferences in your user account.

Time Position Orientation Groundspeed Altitude Reporting Facility
EDT Latitude Longitude Course Direction KTS MPH feet Rate Location/Type
11:00AM 51.3486 -23.0310 308° West  Level Estimated
11:01AM 51.3558 -23.2190 274° West  Level Estimated
11:02AM 51.3628 -23.4071 273° West  Level Estimated
11:03AM 51.3694 -23.5952 273° West  Level Estimated
11:04AM 51.3757 -23.7834 273° West  Level Estimated
11:05AM 51.3818 -23.9716 273° West  Level Estimated
11:06AM 51.3875 -24.1598 273° West  Level Estimated
11:07AM 51.3929 -24.3482 273° West  Level Estimated
11:08AM 51.3981 -24.5365 273° West  Level Estimated
11:09AM 51.4029 -24.7249 272° West  Level Estimated
11:10AM 51.4074 -24.9134 272° West  Level Estimated
11:11AM 51.4116 -25.1018 272° West  Level Estimated
11:12AM 51.4155 -25.2903 272° West  Level Estimated
11:13AM 51.4192 -25.4789 272° West  Level Estimated
11:14AM 51.4225 -25.6674 272° West  Level Estimated
11:15AM 51.4255 -25.8560 272° West  Level Estimated
11:16AM 51.4282 -26.0447 271° West  Level Estimated
11:17AM 51.4306 -26.2333 271° West  Level Estimated
11:18AM 51.4327 -26.4220 271° West  Level Estimated
11:19AM 51.4345 -26.6106 271° West  Level Estimated
11:20AM 51.4360 -26.7993 271° West  Level Estimated
11:21AM 51.4372 -26.9880 271° West  Level Estimated
11:22AM 51.4381 -27.1767 271° West  Level Estimated
11:23AM 51.4387 -27.3654 270° West  Level Estimated
11:23AM 58.0000 -20.0000 285° West 434 499 43,000  Level ETMS Enhanced Traffic Management System
11:24AM 51.4389 -27.5541 270° West  Level Estimated
11:25AM 51.4389 -27.7428 270° West  Level Estimated
11:26AM 51.4386 -27.9316 270° West  Level Estimated
11:27AM 51.4380 -28.1203 270° West  Level Estimated
11:28AM 51.4371 -28.3090 270° West  Level Estimated
11:29AM 58.2105 -21.5499 284° West 434 499 43,000  Level FlightAware Transoceanic
11:30AM 58.2390 -21.7727 284° West 434 499 43,000  Level FlightAware Transoceanic
11:31AM 58.2672 -21.9960 283° West 434 499 43,000  Level FlightAware Transoceanic
11:32AM 58.2949 -22.2196 283° West 434 499 43,000  Level FlightAware Transoceanic
11:33AM 58.3223 -22.4435 283° West 434 499 43,000  Level FlightAware Transoceanic
11:34AM 58.3493 -22.6678 283° West 434 499 43,000  Level FlightAware Transoceanic
11:35AM 58.3759 -22.8924 283° West 434 499 43,000  Level FlightAware Transoceanic
11:36AM 58.4020 -23.1174 282° West 434 499 43,000  Level FlightAware Transoceanic
11:37AM 58.4278 -23.3426 282° West 434 499 43,000  Level FlightAware Transoceanic
11:38AM 58.4532 -23.5683 282° West 434 499 43,000  Level FlightAware Transoceanic
11:39AM 58.4782 -23.7942 282° West 434 499 43,000  Level FlightAware Transoceanic
11:40AM 58.5028 -24.0205 282° West 434 499 43,000  Level FlightAware Transoceanic
11:41AM 58.5270 -24.2470 281° West 434 499 43,000  Level FlightAware Transoceanic
11:42AM 58.5508 -24.4739 281° West 434 499 43,000  Level FlightAware Transoceanic
11:43AM 58.5742 -24.7011 281° West 434 499 43,000  Level FlightAware Transoceanic
11:44AM 58.5972 -24.9286 281° West 434 499 43,000  Level FlightAware Transoceanic
11:45AM 58.6198 -25.1564 281° West 434 499 43,000  Level FlightAware Transoceanic
11:46AM 58.6420 -25.3845 280° West 434 499 43,000  Level FlightAware Transoceanic
11:47AM 58.6638 -25.6129 280° West 434 499 43,000  Level FlightAware Transoceanic
11:48AM 58.6852 -25.8415 280° West 434 499 43,000  Level FlightAware Transoceanic
11:49AM 58.7062 -26.0704 280° West 434 499 43,000  Level FlightAware Transoceanic
11:50AM 58.7267 -26.2996 280° West 434 499 43,000  Level FlightAware Transoceanic
11:51AM 58.7469 -26.5291 280° West 434 499 43,000  Level FlightAware Transoceanic
11:52AM 58.7667 -26.7588 279° West 434 499 43,000  Level FlightAware Transoceanic
11:53AM 58.7860 -26.9888 279° West 434 499 43,000  Level FlightAware Transoceanic
11:54AM 58.8049 -27.2191 279° West 434 499 43,000  Level FlightAware Transoceanic
11:55AM 58.8235 -27.4496 279° West 434 499 43,000  Level FlightAware Transoceanic
11:56AM 58.8416 -27.6803 279° West 434 499 43,000  Level FlightAware Transoceanic
11:57AM 58.8593 -27.9113 278° West 434 499 43,000  Level FlightAware Transoceanic
11:58AM 58.8766 -28.1425 278° West 434 499 43,000  Level FlightAware Transoceanic
11:59AM 58.8935 -28.3739 278° West 434 499 43,000  Level FlightAware Transoceanic
12:00PM 58.9099 -28.6056 278° West 434 499 43,000  Level FlightAware Transoceanic
12:01PM 58.9260 -28.8375 278° West 434 499 43,000  Level FlightAware Transoceanic
12:02PM 58.9416 -29.0696 277° West 434 499 43,000  Level FlightAware Transoceanic
12:03PM 58.9568 -29.3019 277° West 434 499 43,000  Level FlightAware Transoceanic
12:04PM 58.9716 -29.5344 277° West 434 499 43,000  Level FlightAware Transoceanic
12:05PM 58.9860 -29.7671 277° West 434 499 43,000  Level FlightAware Transoceanic
12:06PM 58.9996 -29.9939 277° West  Level FlightAware Approximate
12:07PM 59.0129 -30.2209 277° West  Level FlightAware Approximate
12:07PM 59.0000 -30.0000 263° West 444 511 43,000  Level ETMS Enhanced Traffic Management System
12:08PM 58.9869 -30.2146 263° West  Level FlightAware Approximate
12:09PM 58.9726 -30.4412 263° West  Level FlightAware Approximate
12:10PM 58.9580 -30.6676 263° West  Level FlightAware Approximate
12:11PM 58.9430 -30.8938 263° West  Level FlightAware Approximate
12:12PM 58.9275 -31.1198 263° West  Level FlightAware Approximate
12:13PM 58.8734 -31.9005 262° West 444 511 43,000  Level FlightAware Transoceanic
12:14PM 58.8556 -32.1371 262° West 444 511 43,000  Level FlightAware Transoceanic
12:15PM 58.8374 -32.3734 261° West 444 511 43,000  Level FlightAware Transoceanic
12:16PM 58.8188 -32.6094 261° West 444 511 43,000  Level FlightAware Transoceanic
12:17PM 58.7997 -32.8452 261° West 444 511 43,000  Level FlightAware Transoceanic
12:18PM 58.7802 -33.0807 261° West 444 511 43,000  Level FlightAware Transoceanic
12:19PM 58.7603 -33.3160 261° West 444 511 43,000  Level FlightAware Transoceanic
12:20PM 58.7399 -33.5510 260° West 444 511 43,000  Level FlightAware Transoceanic
12:21PM 58.7191 -33.7857 260° West 444 511 43,000  Level FlightAware Transoceanic
12:22PM 58.6979 -34.0201 260° West 444 511 43,000  Level FlightAware Transoceanic
12:23PM 58.6763 -34.2542 260° West 444 511 43,000  Level FlightAware Transoceanic
12:24PM 58.6542 -34.4881 260° West 444 511 43,000  Level FlightAware Transoceanic
12:25PM 58.6317 -34.7216 259° West 444 511 43,000  Level FlightAware Transoceanic
12:26PM 58.6088 -34.9549 259° West 444 511 43,000  Level FlightAware Transoceanic
12:27PM 58.5855 -35.1878 259° West 444 511 43,000  Level FlightAware Transoceanic
12:28PM 58.5617 -35.4204 259° West 444 511 43,000  Level FlightAware Transoceanic
12:29PM 58.5376 -35.6527 259° West 444 511 43,000  Level FlightAware Transoceanic
12:30PM 58.5130 -35.8847 258° West 444 511 43,000  Level FlightAware Transoceanic
12:31PM 58.4880 -36.1164 258° West 444 511 43,000  Level FlightAware Transoceanic
12:32PM 58.4626 -36.3477 258° West 444 511 43,000  Level FlightAware Transoceanic
12:33PM 58.4367 -36.5787 258° West 444 511 43,000  Level FlightAware Transoceanic
12:34PM 58.4105 -36.8093 258° West 444 511 43,000  Level FlightAware Transoceanic
12:35PM 58.3838 -37.0396 257° West 444 511 43,000  Level FlightAware Transoceanic
12:36PM 58.3567 -37.2696 257° West 444 511 43,000  Level FlightAware Transoceanic
12:37PM 58.3292 -37.4992 257° West 444 511 43,000  Level FlightAware Transoceanic
12:38PM 58.3013 -37.7284 257° West 444 511 43,000  Level FlightAware Transoceanic
12:39PM 58.2730 -37.9573 257° West 444 511 43,000  Level FlightAware Transoceanic
12:40PM 58.2443 -38.1858 256° West 444 511 43,000  Level FlightAware Transoceanic
12:41PM 58.2152 -38.4139 256° West 444 511 43,000  Level FlightAware Transoceanic
12:42PM 58.1856 -38.6416 256° West 444 511 43,000  Level FlightAware Transoceanic
12:43PM 58.1557 -38.8690 256° West 444 511 43,000  Level FlightAware Transoceanic
12:44PM 58.1254 -39.0960 256° West 444 511 43,000  Level FlightAware Transoceanic
12:45PM 58.0946 -39.3226 256° West 444 511 43,000  Level FlightAware Transoceanic
12:46PM 58.0635 -39.5488 255° West 444 511 43,000  Level FlightAware Transoceanic
12:47PM 58.0319 -39.7746 255° West 444 511 43,000  Level FlightAware Transoceanic
12:48PM 58.0015 -39.9891 255° West  Level FlightAware Approximate
12:49PM 57.9708 -40.2033 255° West  Level FlightAware Approximate
12:50PM 57.9701 -40.1913 254° West  Level FlightAware Approximate
12:50PM 58.0000 -40.0000 254° West 453 521 43,000  Level ETMS Enhanced Traffic Management System
12:51PM 57.9364 -40.4037 253° West  Level FlightAware Approximate
12:52PM 57.9024 -40.6157 253° West  Level FlightAware Approximate
12:53PM 57.8680 -40.8274 253° West  Level FlightAware Approximate
12:54PM 57.8333 -41.0386 253° West  Level FlightAware Approximate
12:55PM 57.7983 -41.2494 253° West  Level FlightAware Approximate
12:56PM 57.7481 -41.5894 253° West 453 521 43,000  Level FlightAware Transoceanic
12:57PM 57.7106 -41.8146 253° West 453 521 43,000  Level FlightAware Transoceanic
12:58PM 57.6726 -42.0393 252° West 453 521 43,000  Level FlightAware Transoceanic
12:59PM 57.6342 -42.2636 252° West 453 521 43,000  Level FlightAware Transoceanic
01:00PM 57.5954 -42.4874 252° West 453 521 43,000  Level FlightAware Transoceanic
01:01PM 57.5562 -42.7107 252° West 453 521 43,000  Level FlightAware Transoceanic
01:02PM 57.5167 -42.9336 252° West 453 521 43,000  Level FlightAware Transoceanic
01:03PM 57.4767 -43.1559 251° West 453 521 43,000  Level FlightAware Transoceanic
01:04PM 57.4363 -43.3778 251° West 453 521 43,000  Level FlightAware Transoceanic
01:05PM 57.3956 -43.5991 251° West 453 521 43,000  Level FlightAware Transoceanic
01:06PM 57.3545 -43.8200 251° West 453 521 43,000  Level FlightAware Transoceanic
01:07PM 57.3129 -44.0404 251° West 453 521 43,000  Level FlightAware Transoceanic
01:08PM 57.2710 -44.2603 250° West 453 521 43,000  Level FlightAware Transoceanic
01:09PM 57.2288 -44.4796 250° West 453 521 43,000  Level FlightAware Transoceanic
01:10PM 57.1861 -44.6985 250° West 453 521 43,000  Level FlightAware Transoceanic
01:11PM 57.1431 -44.9169 250° West 453 521 43,000  Level FlightAware Transoceanic
01:12PM 57.0996 -45.1347 250° West 453 521 43,000  Level FlightAware Transoceanic
01:13PM 57.0558 -45.3521 250° West 453 521 43,000  Level FlightAware Transoceanic
01:14PM 57.0117 -45.5689 249° West 453 521 43,000  Level FlightAware Transoceanic
01:15PM 56.9671 -45.7852 249° West 453 521 43,000  Level FlightAware Transoceanic
01:16PM 56.9222 -46.0010 249° West 453 521 43,000  Level FlightAware Transoceanic
01:17PM 56.8769 -46.2163 249° West 453 521 43,000  Level FlightAware Transoceanic
01:18PM 56.8312 -46.4310 249° West 453 521 43,000  Level FlightAware Transoceanic
01:19PM 56.7852 -46.6453 248° West 453 521 43,000  Level FlightAware Transoceanic
01:20PM 56.7388 -46.8590 248° West 453 521 43,000  Level FlightAware Transoceanic
01:21PM 56.6921 -47.0721 248° West 453 521 43,000  Level FlightAware Transoceanic
01:22PM 56.6449 -47.2848 248° West 453 521 43,000  Level FlightAware Transoceanic
01:23PM 56.5974 -47.4969 248° West 453 521 43,000  Level FlightAware Transoceanic
01:24PM 56.5496 -47.7084 248° West 453 521 43,000  Level FlightAware Transoceanic
01:25PM 56.5014 -47.9195 247° West 453 521 43,000  Level FlightAware Transoceanic
01:26PM 56.4528 -48.1300 247° West 453 521 43,000  Level FlightAware Transoceanic
01:27PM 56.4039 -48.3399 247° West 453 521 43,000  Level FlightAware Transoceanic
01:28PM 56.3546 -48.5494 247° West 453 521 43,000  Level FlightAware Transoceanic
01:29PM 56.3050 -48.7582 247° West 453 521 43,000  Level FlightAware Transoceanic
01:30PM 56.2551 -48.9665 247° West 453 521 43,000  Level FlightAware Transoceanic
01:31PM 56.2047 -49.1743 246° West 453 521 43,000  Level FlightAware Transoceanic
01:32PM 56.1541 -49.3816 246° West 453 521 43,000  Level FlightAware Transoceanic
01:33PM 56.1031 -49.5883 246° West 453 521 43,000  Level FlightAware Transoceanic
01:34PM 56.0517 -49.7944 246° West 453 521 43,000  Level FlightAware Transoceanic
01:35PM 56.0034 -49.9864 246° West  Level FlightAware Approximate
01:36PM 55.9548 -50.1779 246° West  Level FlightAware Approximate
01:37PM 55.9638 -50.1684 249° West  Level FlightAware Approximate
01:38PM 55.9212 -50.3643 249° West  Level FlightAware Approximate
01:38PM 56.0000 -50.0000 250° West 419 482 43,000  Level ETMS Enhanced Traffic Management System
01:39PM 55.8784 -50.5597 249° West  Level FlightAware Approximate
01:40PM 55.8353 -50.7547 249° West  Level FlightAware Approximate
01:41PM 55.7919 -50.9492 248° West  Level FlightAware Approximate
01:42PM 55.7481 -51.1433 248° West  Level FlightAware Approximate
01:43PM 55.7040 -51.3370 248° West  Level FlightAware Approximate
01:44PM 55.6702 -51.5529 249° West 419 482 43,000  Level FlightAware Transoceanic
01:45PM 55.6276 -51.7452 248° West 419 482 43,000  Level FlightAware Transoceanic
01:46PM 55.5847 -51.9370 248° West 419 482 43,000  Level FlightAware Transoceanic
01:47PM 55.5415 -52.1284 248° West 419 482 43,000  Level FlightAware Transoceanic
01:48PM 55.4980 -52.3194 248° West 419 482 43,000  Level FlightAware Transoceanic
01:49PM 55.4542 -52.5100 248° West 419 482 43,000  Level FlightAware Transoceanic
01:50PM 55.4101 -52.7001 248° West 419 482 43,000  Level FlightAware Transoceanic
01:51PM 55.3658 -52.8898 248° West 419 482 43,000  Level FlightAware Transoceanic
01:52PM 55.3211 -53.0791 247° West 419 482 43,000  Level FlightAware Transoceanic
01:53PM 55.2761 -53.2680 247° West 419 482 43,000  Level FlightAware Transoceanic
01:54PM 55.2309 -53.4564 247° West 419 482 43,000  Level FlightAware Transoceanic
01:55PM 55.1853 -53.6444 247° West 419 482 43,000  Level FlightAware Transoceanic
01:56PM 55.1395 -53.8320 247° West 419 482 43,000  Level FlightAware Transoceanic
01:57PM 55.0934 -54.0192 247° West 419 482 43,000  Level FlightAware Transoceanic
01:58PM 55.0470 -54.2059 246° West 419 482 43,000  Level FlightAware Transoceanic
01:59PM 55.0003 -54.3922 246° West 419 482 43,000  Level FlightAware Transoceanic
02:00PM 54.9533 -54.5780 246° West 419 482 43,000  Level FlightAware Transoceanic
02:01PM 54.9061 -54.7634 246° West 419 482 43,000  Level FlightAware Transoceanic
02:02PM 54.8585 -54.9484 246° West 419 482 43,000  Level FlightAware Transoceanic
02:03PM 54.8107 -55.1329 246° West 419 482 43,000  Level FlightAware Transoceanic
02:03PM 54.8333 -55.0167 229° Southwest 430 495 43,000  Level Moncton Center
02:04PM 54.7626 -55.3170 246° West 419 482 43,000  Level FlightAware Transoceanic
02:04PM 54.7667 -55.2000 238° Southwest 430 495 43,000  Level Moncton Center
02:05PM 54.7142 -55.5007 245° Southwest 419 482 43,000  Level FlightAware Transoceanic
02:05PM 54.7000 -55.4000 240° Southwest 430 495 43,000  Level Moncton Center
02:06PM 54.6656 -55.6839 245° Southwest 419 482 43,000  Level FlightAware Transoceanic
02:06PM 54.6500 -55.5500 240° Southwest 450 518 43,000  Level Moncton Center
02:07PM 54.5923 -55.8291 229° Southwest  Level Estimated
02:07PM 54.5833 -55.7333 238° Southwest 450 518 43,000  Level Moncton Center
02:08PM 54.5189 -55.9739 229° Southwest  Level Estimated
02:08PM 54.5000 -55.9333 234° Southwest 450 518 43,000  Level Moncton Center
02:09PM 54.4500 -56.1167 245° Southwest 440 506 43,000  Level Moncton Center
02:10PM 54.3833 -56.2667 233° Southwest 450 518 43,000  Level Moncton Center
02:11PM 54.3000 -56.4500 232° Southwest 450 518 43,000  Level Moncton Center
02:12PM 54.2333 -56.6333 238° Southwest 440 506 43,000  Level Moncton Center
02:13PM 54.1667 -56.8333 240° Southwest 450 518 43,000  Level Moncton Center
02:14PM 54.1000 -57.0000 236° Southwest 450 518 43,000  Level Moncton Center
02:15PM 54.0333 -57.1667 236° Southwest 450 518 43,000  Level Moncton Center
02:16PM 53.9500 -57.3500 232° Southwest 450 518 43,000  Level Moncton Center
02:17PM 53.8833 -57.5333 238° Southwest 450 518 43,000  Level Moncton Center
02:18PM 53.8333 -57.6833 241° Southwest 440 506 43,000  Level Moncton Center
02:19PM 53.7500 -57.8667 232° Southwest 450 518 43,000  Level Moncton Center
02:20PM 53.6833 -58.0500 239° Southwest 440 506 43,000  Level Moncton Center
02:21PM 53.6000 -58.2167 230° Southwest 440 506 43,000  Level Moncton Center
02:22PM 53.5500 -58.3667 241° Southwest 440 506 43,000  Level Moncton Center
02:23PM 53.4667 -58.5833 237° Southwest 440 506 43,000  Level Gander Center
02:24PM 53.4000 -58.7333 233° Southwest 440 506 43,000  Level Gander Center
02:25PM 53.3167 -58.9000 230° Southwest 440 506 43,000  Level Gander Center
02:26PM 53.2500 -59.0500 233° Southwest 440 506 43,000  Level Moncton Center
02:27PM 53.2000 -59.2333 246° West 440 506 43,000  Level Moncton Center
02:28PM 53.1167 -59.4000 230° Southwest 440 506 43,000  Level Moncton Center
02:29PM 53.0500 -59.5500 234° Southwest 440 506 43,000  Level Moncton Center
02:30PM 52.9667 -59.7333 233° Southwest 440 506 43,000  Level Gander Center
02:31PM 52.8833 -59.9000 230° Southwest 440 506 43,000  Level Gander Center
02:32PM 52.8167 -60.0667 237° Southwest 440 506 43,000  Level Gander Center
02:33PM 52.7500 -60.2333 237° Southwest 440 506 43,000  Level Gander Center
02:34PM 52.6667 -60.4000 231° Southwest 440 506 43,000  Level Gander Center
02:35PM 52.6000 -60.5667 237° Southwest 440 506 43,000  Level Gander Center
02:36PM 52.5333 -60.7333 237° Southwest 440 506 43,000  Level Gander Center
02:37PM 52.4667 -60.8833 234° Southwest 440 506 43,000  Level Moncton Center
02:38PM 52.3833 -61.0333 228° Southwest 440 506 43,000  Level Moncton Center
02:39PM 52.3333 -61.2000 244° Southwest 440 506 43,000  Level Moncton Center
02:40PM 52.2500 -61.3667 231° Southwest 440 506 43,000  Level Moncton Center
02:41PM 52.1667 -61.5000 224° Southwest 440 506 43,000  Level Moncton Center
02:42PM 52.0833 -61.6667 231° Southwest 440 506 43,000  Level Moncton Center
02:43PM 52.0167 -61.8167 234° Southwest 440 506 43,000  Level Moncton Center
02:44PM 51.9333 -61.9833 231° Southwest 440 506 43,000  Level Gander Center
02:45PM 51.8667 -62.1500 237° Southwest 440 506 43,000  Level Moncton Center
02:46PM 51.8000 -62.2833 231° Southwest 440 506 43,000  Level Moncton Center
02:47PM 51.7167 -62.4500 231° Southwest 440 506 43,000  Level Moncton Center
02:48PM 51.6500 -62.6167 237° Southwest 440 506 43,000  Level Moncton Center
02:49PM 51.5667 -62.7833 231° Southwest 440 506 43,000  Level Moncton Center
02:50PM 51.4833 -62.9167 225° Southwest 440 506 43,000  Level Moncton Center
02:51PM 51.4167 -63.0833 237° Southwest 440 506 43,000  Level Moncton Center
02:52PM 51.3500 -63.2500 237° Southwest 440 506 43,000  Level Moncton Center
02:53PM 51.2667 -63.4000 228° Southwest 440 506 43,000  Level Moncton Center
02:54PM 51.1833 -63.5500 228° Southwest 440 506 43,000  Level Moncton Center
02:55PM 51.1167 -63.7000 235° Southwest 450 518 43,000  Level Moncton Center
02:56PM 51.0333 -63.8667 232° Southwest 450 518 43,000  Level Moncton Center
02:57PM 50.9500 -64.0000 225° Southwest 440 506 43,000  Level Moncton Center
02:58PM 50.8667 -64.1667 232° Southwest 450 518 43,000  Level Moncton Center
02:59PM 50.8000 -64.3167 235° Southwest 440 506 43,000  Level Moncton Center
03:00PM 50.7167 -64.4500 225° Southwest 440 506 43,000  Level Moncton Center
03:01PM 50.6500 -64.6000 235° Southwest 440 506 43,000  Level Moncton Center
03:02PM 50.5667 -64.7667 232° Southwest 440 506 43,000  Level Moncton Center
03:03PM 50.4833 -64.9167 229° Southwest 440 506 43,000  Level Gander Center
03:04PM 50.4000 -65.0667 229° Southwest 440 506 43,000  Level Gander Center
03:05PM 50.3167 -65.2167 229° Southwest 440 506 43,000  Level Gander Center
03:06PM 50.2333 -65.3667 229° Southwest 440 506 43,000  Level Gander Center
03:07PM 50.1667 -65.5167 235° Southwest 440 506 43,000  Level Gander Center
03:08PM 50.0667 -65.6667 224° Southwest 440 506 43,000  Level Gander Center
03:09PM 50.0000 -65.7833 228° Southwest 450 518 43,000  Level Gander Center
03:10PM 49.9167 -65.9333 229° Southwest 450 518 43,000  Level Moncton Center
03:11PM 49.8500 -66.0833 235° Southwest 450 518 43,000  Level Moncton Center
03:12PM 49.7667 -66.2333 229° Southwest 440 506 43,000  Level Moncton Center
03:13PM 49.6833 -66.3667 226° Southwest 440 506 43,000  Level Moncton Center
03:14PM 49.5833 -66.5167 224° Southwest 440 506 43,000  Level Moncton Center
03:15PM 49.5167 -66.6667 236° Southwest 440 506 43,000  Level Moncton Center
03:16PM 49.4333 -66.7833 222° Southwest 440 506 43,000  Level Moncton Center
03:17PM 49.3500 -66.9333 230° Southwest 450 518 43,000  Level Moncton Center
03:18PM 49.2833 -67.1000 239° Southwest 440 506 43,000  Level Moncton Center
03:19PM 49.1833 -67.2333 221° Southwest 440 506 43,000  Level Moncton Center
03:20PM 49.1000 -67.3667 226° Southwest 450 518 43,000  Level Moncton Center
03:21PM 49.0167 -67.5167 230° Southwest 450 518 43,000  Level Moncton Center
03:22PM 48.9333 -67.6667 230° Southwest 450 518 43,000  Level Moncton Center
03:23PM 48.8500 -67.8167 230° Southwest 450 518 43,000  Level Gander Center
03:24PM 48.7667 -67.9500 227° Southwest 450 518 43,000  Level Moncton Center
03:25PM 48.6833 -68.0667 223° Southwest 450 518 43,000  Level Moncton Center
03:26PM 48.5833 -68.2167 225° Southwest 440 506 43,000 180 Level Moncton Center
03:27PM 48.5167 -68.3333 229° Southwest 440 506 43,400 480 Climbing Moncton Center
03:28PM 48.4333 -68.4833 230° Southwest 450 518 44,000 600 Climbing Moncton Center
03:29PM 48.3500 -68.6333 230° Southwest 450 518 44,700 720 Climbing Moncton Center
03:30PM 48.2500 -68.7667 222° Southwest 450 518 45,500 780 Climbing Moncton Center
03:31PM 48.2000 -68.8500 228° Southwest 440 506 46,100 600 Climbing Montreal Center
03:32PM 48.1167 -68.9667 223° Southwest 430 495 46,600 420 Climbing Montreal Center
03:33PM 48.0333 -69.1000 227° Southwest 430 495 47,000 180 Climbing Montreal Center
03:34PM 47.9500 -69.2333 227° Southwest 440 506 47,000  Level Montreal Center
03:35PM 47.8667 -69.3833 230° Southwest 440 506 47,000  Level Montreal Center
03:36PM 47.7833 -69.5167 227° Southwest 440 506 47,000  Level Montreal Center
03:37PM 47.6833 -69.6333 218° Southwest 440 506 47,000  Level Montreal Center
03:38PM 47.5833 -69.7333 214° Southwest 440 506 47,000  Level Montreal Center
03:39PM 47.4833 -69.8333 214° Southwest 440 506 47,000  Level Montreal Center
03:40PM 47.3667 -69.9333 210° Southwest 440 506 47,000  Level Montreal Center
03:41PM 47.2833 -70.0333 219° Southwest 440 506 47,000  Level Montreal Center
03:42PM 47.1833 -70.1333 214° Southwest 440 506 47,000  Level Montreal Center
03:43PM 47.0667 -70.2167 206° Southwest 440 506 47,000  Level Montreal Center
03:44PM 46.9667 -70.3333 219° Southwest 440 506 47,000  Level Montreal Center
03:45PM 46.8833 -70.4167 214° Southwest 440 506 47,000  Level Montreal Center
03:46PM 46.7667 -70.5333 214° Southwest 440 506 47,000  Level Montreal Center
03:47PM 46.6667 -70.6167 210° Southwest 440 506 47,000  Level Montreal Center
03:48PM 46.5500 -70.7167 211° Southwest 440 506 47,000  Level Montreal Center
03:49PM 46.4500 -70.8000 210° Southwest 440 506 47,000  Level Montreal Center
03:50PM 46.3500 -70.9167 219° Southwest 440 506 47,000  Level Montreal Center
03:51PM 46.2500 -71.0167 215° Southwest 440 506 47,000  Level Montreal Center
03:52PM 46.1333 -71.1000 206° Southwest 440 506 47,000  Level Montreal Center
03:53PM 46.0333 -71.2000 215° Southwest 450 518 47,000  Level Montreal Center
03:54PM 45.9500 -71.2833 215° Southwest 450 518 47,000  Level Montreal Center
03:55PM 45.8333 -71.4000 215° Southwest 450 518 47,000  Level Montreal Center
03:56PM 45.7333 -71.5000 215° Southwest 440 506 47,000  Level Montreal Center
03:57PM 45.6167 -71.5833 207° Southwest 450 518 47,000  Level Montreal Center
03:58PM 45.5000 -71.6833 211° Southwest 450 518 47,000  Level Montreal Center
03:59PM 45.4167 -71.7833 220° Southwest 450 518 47,000  Level Montreal Center
04:00PM 45.3000 -71.8667 207° Southwest 450 518 47,000  Level Montreal Center
04:01PM 45.1833 -71.9833 215° Southwest 450 518 47,000  Level Montreal Center
04:02PM 45.0833 -72.0500 205° Southwest 450 518 47,000  Level Montreal Center
04:03PM 45.0172 -72.1553 228° Southwest 455 524 47,000  Level Boston Center
04:04PM 44.9092 -72.2494 212° Southwest 455 524 47,000  Level Boston Center
04:05PM 44.7822 -72.3611 212° Southwest 455 524 47,000  Level Boston Center
04:06PM 44.6739 -72.4458 209° Southwest 455 524 47,000  Level Boston Center
04:07PM 44.5592 -72.5247 206° Southwest 455 524 47,000 -300 Level Boston Center
04:08PM 44.4467 -72.6058 207° Southwest 455 524 46,500 -1,020 Descending Boston Center
04:09PM 44.3381 -72.6839 207° Southwest 455 524 44,800 -1,860 Descending Boston Center
04:10PM 44.2192 -72.7733 208° Southwest 455 524 42,500 -2,220 Descending Boston Center
04:11PM 44.1106 -72.8536 208° Southwest 450 518 40,400 -2,100 Descending Boston Center
04:12PM 44.0019 -72.9308 207° Southwest 450 518 38,400 -1,980 Descending Boston Center
04:13PM 43.8975 -73.0047 207° Southwest 441 507 36,500 -1,920 Descending Boston Center
04:14PM 43.7908 -73.0814 207° Southwest 435 501 34,600 -1,920 Descending Boston Center
04:15PM 43.6839 -73.1578 207° Southwest 435 501 32,700 -1,920 Descending Boston Center
04:16PM 43.5772 -73.2283 206° Southwest 430 495 30,800 -1,920 Descending Boston Center
04:17PM 43.4703 -73.3042 207° Southwest 430 495 28,900 -1,920 Descending Boston Center
04:18PM 43.3636 -73.3797 207° Southwest 425 489 27,000 -1,920 Descending Boston Center
04:19PM 43.2608 -73.4464 205° Southwest 425 489 25,100 -1,740 Descending Boston Center
04:20PM 43.1603 -73.5161 207° Southwest 420 483 23,600 -1,740 Descending Boston Center
04:21PM 43.0636 -73.5853 208° Southwest 408 470 21,700 -1,860 Descending Boston Center
04:22PM 42.9650 -73.6544 207° Southwest 403 464 19,900 -1,920 Descending Boston Center
04:23PM 42.8725 -73.7178 207° Southwest 392 451 17,900 -1,800 Descending Boston Center
04:24PM 42.7800 -73.7867 209° Southwest 392 451 16,300 -960 Descending Boston Center
04:25PM 42.6856 -73.8522 207° Southwest 392 451 16,000 -180 Descending Boston Center
04:26PM 42.5844 -73.9233 207° Southwest 384 442 16,000  Level Boston Center
04:27PM 42.5025 -73.9861 209° Southwest 379 436 16,000  Level Boston Center
04:28PM 42.3992 -74.0622 209° Southwest 379 436 16,000  Level Boston Center
04:29PM 42.3086 -74.1303 209° Southwest 379 436 16,100  Climbing Boston Center
04:30PM 42.2244 -74.1922 209° Southwest 379 436 16,100 -180 Level Boston Center
04:31PM 42.1211 -74.2678 208° Southwest 384 442 15,800 -900 Descending Boston Center
04:32PM 42.0328 -74.3128 201° Southwest 384 442 14,300 -1,500 Descending Boston Center
04:33PM 41.9233 -74.3653 200° South 379 436 12,800 -1,440 Descending Boston Center
04:34PM 41.8417 -74.3992 197° South 361 415 11,500 -1,440 Descending Boston Center
04:35PM 41.7492 -74.4408 199° South 330 380 10,000 -1,380 Descending Boston Center
04:36PM 41.6819 -74.4719 199° South 300 345 8,800 -1,320 Descending Boston Center
04:37PM 41.6042 -74.5056 198° South 281 323 7,400 -1,020 Descending Boston Center
04:38PM 41.5369 -74.5339 198° South 281 323 6,800 -720 Descending Boston Center
04:39PM 41.4592 -74.5703 199° South 276 318 6,000 -300 Descending Boston Center
04:41PM 41.3333 -74.6167 195° South 271 312 6,000 -300 Level New York TRACON
04:42PM 41.2500 -74.6500 197° South 269 310 5,300 -900 Descending New York TRACON
04:43PM 41.1833 -74.6833 201° Southwest 269 310 4,300 -660 Descending New York TRACON
04:44PM 41.1167 -74.6833 180° South 264 304 4,000 -180 Descending New York TRACON
04:45PM 41.0333 -74.6500 163° South 265 305 4,000  Level New York TRACON
04:46PM 40.9667 -74.6333 169° South 270 311 4,000  Level New York TRACON
04:47PM 40.9000 -74.6167 169° South 263 303 4,000  Level New York TRACON
04:48PM 40.8500 -74.5667 143° Southeast 227 261 4,000  Level New York TRACON
04:49PM 40.8000 -74.5167 143° Southeast 228 262 4,000  Level New York TRACON
04:50PM 40.7500 -74.4500 135° Southeast 225 259 4,000 -360 Level New York TRACON
04:51PM 40.7333 -74.3833 108° East 225 259 3,300 -1,020 Descending New York TRACON
04:52PM 40.7333 -74.3000 90° East 225 259 2,000 -660 Descending New York TRACON
04:53PM 40.7500 -74.2333 72° East 190 219 2,000  Level New York TRACON